Time;durP1;ratioP1;P1;durP2;ratioP2;P2;SDS_P1;SDS_P2;PMS_P1;PMS_P2;Temp;Humidity;BMP_temperature;BMP_pressure;BME280_temperature;BME280_humidity;BME280_pressure;Samples;Min_cycle;Max_cycle;Signal;HPM_P1;HPM_P2
2020/12/06 00:01:22;;;;;;;19.85;14.60;;;4.40;99.90;;;;;;5034204;28;20020;-83
2020/12/06 00:03:47;;;;;;;17.33;13.45;;;4.40;99.90;;;;;;5031166;28;20024;-83
2020/12/06 00:06:14;;;;;;;18.08;14.07;;;4.40;99.90;;;;;;5031153;28;20021;-83
2020/12/06 00:08:39;;;;;;;19.13;13.98;;;4.40;99.90;;;;;;5054074;28;20439;-84
2020/12/06 00:11:08;;;;;;;19.60;14.65;;;4.40;99.90;;;;;;5038565;28;20033;-83
2020/12/06 00:13:34;;;;;;;18.02;13.95;;;4.50;99.90;;;;;;5041636;28;20048;-83
2020/12/06 00:15:59;;;;;;;21.52;16.67;;;4.40;99.90;;;;;;5032009;28;20029;-84
2020/12/06 00:18:25;;;;;;;23.48;17.15;;;4.30;99.90;;;;;;5033897;28;20370;-83
2020/12/06 00:20:51;;;;;;;21.60;16.23;;;4.30;99.90;;;;;;5032870;28;20478;-83
2020/12/06 00:23:20;;;;;;;23.83;18.02;;;4.30;99.90;;;;;;5032539;28;20366;-83
2020/12/06 00:25:50;;;;;;;18.15;14.40;;;4.30;99.90;;;;;;5031368;28;20432;-83
2020/12/06 00:28:16;;;;;;;17.60;13.23;;;4.30;99.90;;;;;;5032181;28;20478;-83
2020/12/06 00:30:42;;;;;;;18.25;12.98;;;4.40;99.90;;;;;;5018548;28;20412;-83
2020/12/06 00:33:10;;;;;;;17.10;13.68;;;4.50;99.90;;;;;;5044757;28;20129;-83
2020/12/06 00:35:35;;;;;;;17.33;14.02;;;4.50;99.90;;;;;;5034476;28;20028;-83
2020/12/06 00:38:01;;;;;;;20.83;14.43;;;4.40;99.90;;;;;;5024613;28;20021;-83
2020/12/06 00:40:27;;;;;;;17.33;13.68;;;4.40;99.90;;;;;;5028857;28;20500;-83
2020/12/06 00:42:52;;;;;;;19.55;14.75;;;4.20;99.90;;;;;;5043491;28;20385;-83
2020/12/06 00:45:18;;;;;;;23.90;16.80;;;4.20;99.90;;;;;;5031083;28;20052;-82
2020/12/06 00:47:44;;;;;;;20.52;14.50;;;4.20;99.90;;;;;;5012511;28;20030;-83
2020/12/06 00:50:10;;;;;;;19.17;14.20;;;4.20;99.90;;;;;;5013744;28;20481;-83
2020/12/06 00:52:35;;;;;;;24.10;16.67;;;4.40;99.90;;;;;;5044686;28;20088;-83
2020/12/06 00:55:01;;;;;;;20.67;15.32;;;4.20;99.90;;;;;;5052501;28;20465;-83
2020/12/06 00:57:27;;;;;;;19.08;14.02;;;4.10;99.90;;;;;;5034767;28;20025;-83
2020/12/06 00:59:52;;;;;;;20.30;14.65;;;4.10;99.90;;;;;;5049294;28;20036;-84
2020/12/06 01:02:18;;;;;;;17.10;14.13;;;4.00;99.90;;;;;;5032527;28;20375;-83
2020/12/06 01:04:45;;;;;;;18.30;13.68;;;3.90;99.90;;;;;;5036276;28;20057;-83
2020/12/06 01:07:10;;;;;;;18.27;14.18;;;4.00;99.90;;;;;;5035212;28;20063;-83
2020/12/06 01:09:36;;;;;;;16.70;12.45;;;3.90;99.90;;;;;;5032946;28;20033;-83
2020/12/06 01:12:03;;;;;;;20.10;14.30;;;3.90;99.90;;;;;;5020589;28;20398;-84
2020/12/06 01:14:28;;;;;;;17.98;14.23;;;4.10;99.90;;;;;;5028547;28;20056;-83
2020/12/06 01:16:54;;;;;;;17.88;13.77;;;4.00;99.90;;;;;;5047578;28;20473;-84
2020/12/06 01:19:20;;;;;;;15.88;13.32;;;4.00;99.90;;;;;;5052868;28;20033;-83
2020/12/06 01:21:50;;;;;;;19.45;14.60;;;4.00;99.90;;;;;;5053042;28;20036;-83
2020/12/06 01:24:16;;;;;;;16.75;13.57;;;4.10;99.90;;;;;;5052780;28;20021;-83
2020/12/06 01:26:48;;;;;;;19.35;14.65;;;4.10;99.90;;;;;;5038616;28;20140;-83
2020/12/06 01:29:14;;;;;;;17.52;14.02;;;4.00;99.90;;;;;;5022805;28;20025;-83
2020/12/06 01:31:53;;;;;;;16.67;13.48;;;3.90;99.90;;;;;;5040681;28;20083;-83
2020/12/06 01:34:18;;;;;;;17.67;13.55;;;3.90;99.90;;;;;;5012844;28;20022;-83
2020/12/06 01:36:44;;;;;;;20.48;15.82;;;4.10;99.90;;;;;;5037722;28;20516;-83
2020/12/06 01:39:10;;;;;;;22.48;15.60;;;4.00;99.90;;;;;;5051119;28;20063;-83
2020/12/06 01:41:36;;;;;;;20.27;14.65;;;4.00;99.90;;;;;;5029456;28;20097;-83
2020/12/06 01:44:06;;;;;;;18.17;14.15;;;4.00;99.90;;;;;;5016723;28;20540;-83
2020/12/06 01:46:35;;;;;;;16.85;13.18;;;4.00;99.90;;;;;;5013158;28;20478;-84
2020/12/06 01:49:01;;;;;;;16.10;13.23;;;3.80;99.90;;;;;;5034215;28;20084;-83
2020/12/06 01:51:26;;;;;;;16.77;12.93;;;3.90;99.90;;;;;;5029687;28;20033;-83
2020/12/06 01:53:52;;;;;;;16.73;12.45;;;4.00;99.90;;;;;;5039792;28;20556;-83
2020/12/06 01:56:18;;;;;;;19.80;14.10;;;4.10;99.90;;;;;;5042252;28;20028;-83
2020/12/06 01:58:44;;;;;;;21.17;15.80;;;4.20;99.90;;;;;;5030598;28;20018;-83
2020/12/06 02:01:11;;;;;;;18.13;13.82;;;4.00;99.90;;;;;;5017718;28;20026;-83
2020/12/06 02:03:37;;;;;;;19.52;14.80;;;4.10;99.90;;;;;;5038485;28;20117;-83
2020/12/06 02:06:04;;;;;;;21.23;15.65;;;4.10;99.90;;;;;;5012725;28;20029;-84
2020/12/06 02:08:30;;;;;;;19.77;15.68;;;4.10;99.90;;;;;;5036109;28;20059;-83
2020/12/06 02:10:56;;;;;;;21.45;15.85;;;3.90;99.90;;;;;;5037281;28;20024;-83
2020/12/06 02:13:22;;;;;;;19.50;15.25;;;3.80;99.90;;;;;;5037220;28;20664;-83
2020/12/06 02:15:48;;;;;;;19.83;15.38;;;3.80;99.90;;;;;;5025696;28;20026;-83
2020/12/06 02:18:15;;;;;;;18.90;14.13;;;3.90;99.90;;;;;;5025399;28;20029;-84
2020/12/06 02:20:41;;;;;;;19.73;14.30;;;4.00;99.90;;;;;;5047672;28;20425;-83
2020/12/06 02:23:07;;;;;;;18.42;14.45;;;4.00;99.90;;;;;;5050937;28;20025;-83
2020/12/06 02:25:40;;;;;;;19.63;14.75;;;4.00;99.90;;;;;;5042758;28;20027;-83
2020/12/06 02:28:09;;;;;;;18.95;14.18;;;3.90;99.90;;;;;;5050696;28;20033;-83
2020/12/06 02:30:36;;;;;;;17.35;13.75;;;3.90;99.90;;;;;;5040743;28;20033;-83
2020/12/06 02:33:03;;;;;;;18.98;13.90;;;3.90;99.90;;;;;;5055338;28;20400;-83
2020/12/06 02:35:29;;;;;;;20.45;14.70;;;3.80;99.90;;;;;;5041175;28;20607;-83
2020/12/06 02:37:55;;;;;;;18.13;14.10;;;3.90;99.90;;;;;;5033961;28;20057;-83
2020/12/06 02:40:20;;;;;;;17.95;13.77;;;3.80;99.90;;;;;;5033164;28;20040;-83
2020/12/06 02:42:46;;;;;;;17.58;13.30;;;3.90;99.90;;;;;;5035308;28;20029;-83
2020/12/06 02:45:12;;;;;;;16.77;13.32;;;3.80;99.90;;;;;;5033878;28;20057;-82
2020/12/06 02:47:37;;;;;;;18.75;14.05;;;4.00;99.90;;;;;;5019840;28;20022;-83
2020/12/06 02:50:05;;;;;;;19.15;13.35;;;4.10;99.90;;;;;;5033191;28;20539;-83
2020/12/06 02:52:31;;;;;;;17.98;13.38;;;3.90;99.90;;;;;;5035307;28;20033;-84
2020/12/06 02:54:57;;;;;;;18.27;13.85;;;4.10;99.90;;;;;;5027825;28;20025;-83
2020/12/06 02:57:23;;;;;;;19.60;13.68;;;4.00;99.90;;;;;;5047278;28;20034;-83
2020/12/06 02:59:48;;;;;;;16.42;13.23;;;4.00;99.90;;;;;;5029097;28;20029;-84
2020/12/06 03:02:14;;;;;;;18.02;13.88;;;3.90;99.90;;;;;;5031881;28;20040;-83
2020/12/06 03:04:40;;;;;;;15.85;12.68;;;3.90;99.90;;;;;;5037603;28;20428;-83
2020/12/06 03:07:05;;;;;;;16.85;13.25;;;3.90;99.90;;;;;;5017693;28;20030;-83
2020/12/06 03:09:31;;;;;;;17.02;12.30;;;3.90;99.90;;;;;;5042101;28;20030;-83
2020/12/06 03:11:57;;;;;;;17.88;13.18;;;3.80;99.90;;;;;;5039592;28;20092;-83
2020/12/06 03:14:22;;;;;;;16.67;12.77;;;3.80;99.90;;;;;;5038130;28;20033;-83
2020/12/06 03:16:48;;;;;;;18.02;13.05;;;3.80;99.90;;;;;;5034592;28;20457;-84
2020/12/06 03:19:14;;;;;;;17.15;13.48;;;3.90;99.90;;;;;;5026027;28;20026;-83
2020/12/06 03:21:39;;;;;;;15.80;12.60;;;3.90;99.90;;;;;;5020723;28;20393;-83
2020/12/06 03:24:05;;;;;;;16.63;13.20;;;3.90;99.90;;;;;;5036669;28;20410;-83
2020/12/06 03:26:31;;;;;;;16.75;12.18;;;4.00;99.90;;;;;;5032024;28;20029;-84
2020/12/06 03:28:57;;;;;;;14.52;12.02;;;4.00;99.90;;;;;;5014061;28;20038;-83
2020/12/06 03:31:23;;;;;;;17.77;12.48;;;3.90;99.90;;;;;;5035843;28;20029;-84
2020/12/06 03:33:49;;;;;;;16.67;11.68;;;4.00;99.90;;;;;;5053903;28;20140;-83
2020/12/06 03:36:14;;;;;;;14.55;12.02;;;3.90;99.90;;;;;;5049333;28;20029;-83
2020/12/06 03:38:40;;;;;;;16.17;11.93;;;3.90;99.90;;;;;;5032919;28;20025;-83
2020/12/06 03:41:06;;;;;;;16.67;12.80;;;4.20;99.90;;;;;;5048838;28;20465;-83
2020/12/06 03:43:31;;;;;;;15.73;12.02;;;4.20;99.90;;;;;;5046551;28;20108;-83
2020/12/06 03:45:57;;;;;;;16.67;12.20;;;4.00;99.90;;;;;;5040672;28;20025;-83
2020/12/06 03:48:23;;;;;;;17.27;12.45;;;4.10;99.90;;;;;;5046871;28;20477;-83
2020/12/06 03:50:48;;;;;;;15.23;12.32;;;4.10;99.90;;;;;;5034126;28;20037;-83
2020/12/06 03:53:14;;;;;;;17.40;12.93;;;4.00;99.90;;;;;;5033621;28;20389;-83
2020/12/06 03:55:40;;;;;;;13.88;11.18;;;4.00;99.90;;;;;;5037363;28;20037;-83
2020/12/06 03:58:07;;;;;;;15.13;11.25;;;4.00;99.90;;;;;;5042232;28;20037;-83
2020/12/06 04:00:34;;;;;;;17.40;11.65;;;3.90;99.90;;;;;;5034002;28;20030;-83
2020/12/06 04:02:59;;;;;;;15.00;11.07;;;4.00;99.90;;;;;;5044824;28;20022;-85
2020/12/06 04:05:25;;;;;;;12.85;10.30;;;4.00;99.90;;;;;;5053883;28;20036;-83
2020/12/06 04:07:51;;;;;;;14.15;10.43;;;4.10;99.90;;;;;;5053611;28;20021;-83
2020/12/06 04:10:18;;;;;;;15.15;10.27;;;4.00;99.90;;;;;;5030650;28;20060;-83
2020/12/06 04:12:44;;;;;;;13.82;10.23;;;4.10;99.90;;;;;;5029427;28;20054;-83
2020/12/06 04:15:10;;;;;;;12.55;9.73;;;4.00;99.90;;;;;;5042224;28;20064;-83
2020/12/06 04:17:36;;;;;;;11.75;9.73;;;4.10;99.90;;;;;;5035884;28;20064;-83
2020/12/06 04:20:04;;;;;;;13.05;10.27;;;4.00;99.90;;;;;;5012618;28;20367;-83
2020/12/06 04:22:29;;;;;;;12.32;9.95;;;4.00;99.90;;;;;;5033350;28;20066;-83
2020/12/06 04:24:55;;;;;;;14.13;9.95;;;4.00;99.90;;;;;;5032883;28;20052;-83
2020/12/06 04:27:21;;;;;;;10.85;8.57;;;4.10;99.90;;;;;;5033109;28;20018;-83
2020/12/06 04:29:46;;;;;;;12.10;8.30;;;4.00;99.90;;;;;;5033409;28;20472;-83
2020/12/06 04:32:12;;;;;;;10.25;8.35;;;4.00;99.90;;;;;;5053017;28;20094;-83
2020/12/06 04:34:37;;;;;;;10.27;7.72;;;4.00;99.90;;;;;;5049530;28;20031;-83
2020/12/06 04:37:04;;;;;;;9.60;7.75;;;4.10;99.90;;;;;;5039712;28;20056;-83
2020/12/06 04:39:31;;;;;;;9.48;7.18;;;4.10;99.90;;;;;;5039105;28;20481;-83
2020/12/06 04:41:56;;;;;;;10.48;7.47;;;4.10;99.90;;;;;;5035134;28;20009;-83
2020/12/06 04:44:23;;;;;;;9.55;7.05;;;4.20;99.90;;;;;;5051458;28;20465;-83
2020/12/06 04:46:49;;;;;;;7.53;6.60;;;4.20;99.90;;;;;;5051430;28;20017;-83
2020/12/06 04:49:50;;;;;;;9.00;6.75;;;4.10;99.90;;;;;;5047356;28;20497;-83
2020/12/06 04:52:18;;;;;;;8.93;7.10;;;4.10;99.90;;;;;;5025327;28;20046;-83
2020/12/06 04:54:51;;;;;;;9.75;7.75;;;4.00;99.90;;;;;;5036573;28;20033;-84
2020/12/06 04:57:19;;;;;;;10.48;7.75;;;4.00;99.90;;;;;;5032480;28;20049;-84
2020/12/06 04:59:47;;;;;;;10.05;7.97;;;4.20;99.90;;;;;;5032954;28;20021;-84
2020/12/06 05:02:18;;;;;;;10.63;7.70;;;4.10;99.90;;;;;;5031963;28;20061;-83
2020/12/06 05:04:47;;;;;;;11.32;8.15;;;4.00;99.90;;;;;;5026368;28;20116;-83
2020/12/06 05:07:15;;;;;;;10.95;8.73;;;4.00;99.90;;;;;;5040097;28;20075;-83
2020/12/06 05:09:43;;;;;;;13.77;10.70;;;4.10;99.90;;;;;;5032917;28;20542;-83
2020/12/06 05:12:09;;;;;;;17.75;13.30;;;4.10;99.90;;;;;;5039598;28;20045;-83
2020/12/06 05:14:35;;;;;;;18.17;13.70;;;3.80;99.90;;;;;;5030559;28;20048;-83
2020/12/06 05:17:01;;;;;;;18.42;13.93;;;3.80;99.90;;;;;;5032439;28;20026;-83
2020/12/06 05:19:27;;;;;;;18.45;14.27;;;3.60;99.90;;;;;;5012875;28;20490;-83
2020/12/06 05:21:54;;;;;;;19.58;15.18;;;3.60;99.90;;;;;;5028199;28;20504;-83
2020/12/06 05:24:20;;;;;;;20.45;15.35;;;3.90;99.90;;;;;;5027029;28;20180;-83
2020/12/06 05:26:46;;;;;;;19.48;15.13;;;3.70;99.90;;;;;;5032292;28;20025;-83
2020/12/06 05:29:13;;;;;;;18.88;14.90;;;3.60;99.90;;;;;;5028195;28;20030;-83
2020/12/06 05:31:39;;;;;;;23.35;16.88;;;3.60;99.90;;;;;;5011613;28;20026;-83
2020/12/06 05:34:05;;;;;;;21.48;16.33;;;3.50;99.90;;;;;;5012664;28;20038;-83
2020/12/06 05:36:31;;;;;;;23.77;18.13;;;3.60;99.90;;;;;;5033416;28;20026;-83
2020/12/06 05:38:57;;;;;;;20.73;15.63;;;3.50;99.90;;;;;;5030907;28;20030;-83
2020/12/06 05:41:22;;;;;;;24.38;18.55;;;3.60;99.90;;;;;;5023575;28;20481;-83
2020/12/06 05:43:48;;;;;;;19.10;15.68;;;3.70;99.90;;;;;;5035757;28;20477;-83
2020/12/06 05:46:16;;;;;;;21.42;16.30;;;3.40;99.90;;;;;;5038645;28;20096;-83
2020/12/06 05:48:44;;;;;;;21.27;15.35;;;3.40;99.90;;;;;;5031834;28;20028;-82
2020/12/06 05:51:11;;;;;;;21.95;16.08;;;3.70;99.90;;;;;;5040225;28;20036;-82
2020/12/06 05:53:36;;;;;;;21.27;16.10;;;3.30;99.90;;;;;;5051555;28;20026;-83
2020/12/06 05:56:13;;;;;;;22.40;16.67;;;3.60;99.90;;;;;;5033812;28;20022;-82
2020/12/06 05:58:41;;;;;;;23.10;16.30;;;3.30;99.90;;;;;;5041706;28;20075;-82
2020/12/06 06:01:08;;;;;;;21.55;15.90;;;3.70;99.90;;;;;;5047334;28;20028;-83
2020/12/06 06:03:40;;;;;;;19.58;14.68;;;3.20;99.90;;;;;;5053743;28;20453;-83
2020/12/06 06:06:08;;;;;;;18.60;14.70;;;3.10;99.90;;;;;;5051292;28;20017;-82
2020/12/06 06:08:41;;;;;;;22.08;15.25;;;3.00;99.90;;;;;;5036864;28;20040;-82
2020/12/06 06:11:27;;;;;;;20.48;14.90;;;3.00;99.90;;;;;;5021998;28;20053;-82
2020/12/06 06:13:53;;;;;;;22.27;15.02;;;3.00;99.90;;;;;;5042692;28;20382;-85
2020/12/06 06:16:20;;;;;;;20.00;16.50;;;3.10;99.90;;;;;;5017801;28;20029;-82
2020/12/06 06:18:48;;;;;;;18.35;14.70;;;3.20;99.90;;;;;;5030193;28;20067;-82
2020/12/06 06:21:16;;;;;;;21.20;16.00;;;3.50;99.90;;;;;;5058721;28;20074;-82
2020/12/06 06:23:44;;;;;;;17.55;13.90;;;3.40;99.90;;;;;;5039989;28;20026;-81
2020/12/06 06:26:11;;;;;;;16.63;12.95;;;3.10;99.90;;;;;;5038519;28;20018;-83
2020/12/06 06:28:37;;;;;;;18.23;13.55;;;3.00;99.90;;;;;;5037270;28;20374;-81
2020/12/06 06:31:04;;;;;;;17.80;12.90;;;3.40;99.90;;;;;;5037508;28;20040;-82
2020/12/06 06:33:33;;;;;;;17.25;12.40;;;3.50;99.90;;;;;;5057414;28;20028;-82
2020/12/06 06:35:59;;;;;;;13.27;10.05;;;3.40;99.90;;;;;;5045105;28;20497;-82
2020/12/06 06:38:25;;;;;;;12.48;9.23;;;3.50;99.90;;;;;;5038994;28;20029;-82
2020/12/06 06:40:53;;;;;;;13.05;9.00;;;3.10;99.90;;;;;;5050411;28;20029;-82
2020/12/06 06:43:18;;;;;;;11.38;9.45;;;3.00;99.90;;;;;;5058003;28;20025;-82
2020/12/06 06:45:44;;;;;;;11.88;9.60;;;3.10;99.90;;;;;;5057875;28;20017;-82
2020/12/06 06:48:16;;;;;;;11.35;9.13;;;3.70;99.90;;;;;;5058209;28;20040;-82
2020/12/06 06:50:46;;;;;;;11.48;8.82;;;3.40;99.90;;;;;;5058463;28;20033;-82
2020/12/06 06:53:15;;;;;;;12.40;9.85;;;2.90;99.90;;;;;;5034333;28;20033;-82
2020/12/06 06:55:54;;;;;;;15.50;12.27;;;3.30;99.90;;;;;;5035139;28;20037;-82
2020/12/06 06:58:23;;;;;;;13.68;10.60;;;2.70;99.90;;;;;;5035148;28;20029;-82
2020/12/06 07:00:50;;;;;;;13.40;10.23;;;3.00;99.90;;;;;;5035037;28;20423;-82
2020/12/06 07:03:19;;;;;;;13.10;10.13;;;2.90;99.90;;;;;;5031673;28;20040;-82
2020/12/06 07:05:45;;;;;;;11.68;9.50;;;3.10;99.90;;;;;;5038323;28;20016;-82
2020/12/06 07:08:13;;;;;;;12.05;9.32;;;3.00;99.90;;;;;;5015159;28;20123;-81
2020/12/06 07:10:42;;;;;;;12.93;9.50;;;3.60;99.90;;;;;;5013443;28;20026;-81
2020/12/06 07:13:08;;;;;;;12.52;10.00;;;3.20;99.90;;;;;;5033528;28;20060;-83
2020/12/06 07:15:34;;;;;;;12.82;9.73;;;3.50;99.90;;;;;;5034135;28;20025;-83
2020/12/06 07:18:01;;;;;;;13.23;9.73;;;3.10;1.00;;;;;;5033487;28;20032;-86
2020/12/06 07:20:28;;;;;;;11.00;9.27;;;3.30;99.90;;;;;;5034354;28;20037;-83
2020/12/06 07:22:55;;;;;;;14.15;9.68;;;3.50;99.90;;;;;;5014875;28;20026;-84
2020/12/06 07:25:21;;;;;;;11.68;9.05;;;3.40;99.90;;;;;;5016243;28;20022;-85
2020/12/06 07:27:48;;;;;;;12.13;9.80;;;3.30;99.90;;;;;;5032963;28;20029;-85
2020/12/06 07:30:18;;;;;;;12.77;9.98;;;3.20;99.90;;;;;;5039305;28;20086;-84
2020/12/06 07:32:43;;;;;;;11.55;9.13;;;3.20;99.90;;;;;;5053316;28;20555;-83
2020/12/06 07:35:11;;;;;;;11.10;9.20;;;3.20;99.90;;;;;;5049196;28;20100;-84
2020/12/06 07:37:37;;;;;;;12.00;9.40;;;3.60;99.90;;;;;;5051069;28;20083;-89
2020/12/06 07:40:08;;;;;;;12.00;9.23;;;3.50;99.90;;;;;;5052723;28;20523;-84
2020/12/06 07:42:34;;;;;;;12.02;8.63;;;3.70;99.90;;;;;;5050171;28;20388;-83
2020/12/06 07:45:01;;;;;;;13.45;9.23;;;3.90;99.90;;;;;;5052983;28;20028;-83
2020/12/06 07:47:27;;;;;;;13.95;10.88;;;4.00;99.90;;;;;;5054031;28;20040;-84
2020/12/06 07:49:54;;;;;;;16.70;11.98;;;4.10;99.90;;;;;;5053343;28;20025;-84
2020/12/06 07:52:34;;;;;;;14.88;11.55;;;4.30;99.90;;;;;;5033688;28;20031;-87
2020/12/06 07:55:05;;;;;;;14.05;11.30;;;4.70;99.90;;;;;;5038006;28;20041;-87
2020/12/06 07:57:54;;;;;;;11.35;9.38;;;6.30;99.90;;;;;;5052087;28;20036;-87
2020/12/06 08:00:29;;;;;;;14.23;9.82;;;8.60;99.90;;;;;;5018101;28;20025;-88
2020/12/06 08:02:58;;;;;;;10.10;8.80;;;9.60;99.90;;;;;;5012962;28;20479;-88
2020/12/06 08:05:27;;;;;;;12.35;9.60;;;9.90;99.90;;;;;;5012545;28;20021;-87
2020/12/06 08:07:57;;;;;;;14.02;10.32;;;10.90;99.90;;;;;;5035999;28;20514;-86
2020/12/06 08:10:25;;;;;;;14.13;10.43;;;9.70;99.90;;;;;;5033896;28;20029;-88
2020/12/06 08:12:53;;;;;;;13.60;10.48;;;9.20;99.90;;;;;;5029457;28;20052;-86
2020/12/06 08:15:23;;;;;;;13.25;10.82;;;9.60;99.90;;;;;;5043477;28;20082;-94
2020/12/06 08:17:51;;;;;;;14.38;10.68;;;9.60;99.90;;;;;;5045401;28;20021;-87
2020/12/06 08:20:24;;;;;;;13.52;10.48;;;9.30;99.90;;;;;;5025026;28;20026;-88
2020/12/06 08:22:58;;;;;;;11.93;10.23;;;11.90;99.90;;;;;;5016769;28;20055;-89
2020/12/06 08:25:25;;;;;;;13.77;10.85;;;14.80;99.90;;;;;;5047012;28;20032;-86
2020/12/06 08:27:51;;;;;;;13.02;10.05;;;16.00;99.90;;;;;;5053722;28;20440;-88
2020/12/06 08:30:19;;;;;;;12.88;10.65;;;17.40;99.90;;;;;;5038632;28;20021;-88
2020/12/06 08:32:57;;;;;;;15.50;13.35;;;17.70;99.90;;;;;;5043601;28;20455;-89
2020/12/06 08:35:47;;;;;;;21.02;16.90;;;18.30;99.90;;;;;;5052035;28;20025;-85
2020/12/06 08:38:37;;;;;;;17.83;15.75;;;18.60;99.90;;;;;;5051477;28;20395;-84
2020/12/06 08:41:11;;;;;;;19.45;16.67;;;17.90;99.90;;;;;;5053162;28;20032;-84
2020/12/06 08:43:53;;;;;;;18.77;15.88;;;18.80;99.90;;;;;;5052545;28;20035;-88
2020/12/06 08:46:24;;;;;;;18.55;16.30;;;18.80;99.90;;;;;;5011606;28;20379;-88
2020/12/06 08:48:52;;;;;;;22.10;18.73;;;19.10;99.90;;;;;;5012727;28;20071;-88
2020/12/06 08:51:35;;;;;;;17.95;16.05;;;18.40;99.90;;;;;;5028861;28;20067;-92
2020/12/06 08:54:03;;;;;;;18.42;15.57;;;19.10;99.90;;;;;;5053240;28;20055;-89
2020/12/06 08:56:37;;;;;;;17.30;15.13;;;19.20;99.90;;;;;;5036071;28;20374;-87
2020/12/06 08:59:04;;;;;;;18.45;15.48;;;19.70;99.90;;;;;;5031993;28;20029;-92
2020/12/06 09:01:30;;;;;;;20.10;17.92;;;20.10;99.90;;;;;;5039402;28;20116;-89
2020/12/06 09:03:56;;;;;;;18.52;16.48;;;19.00;99.90;;;;;;5050570;28;20104;-88
2020/12/06 09:06:22;;;;;;;22.75;18.25;;;19.90;99.90;;;;;;5052130;28;20021;-89
2020/12/06 09:08:47;;;;;;;22.38;18.30;;;20.90;99.90;;;;;;5046679;28;20044;-90
2020/12/06 09:11:31;;;;;;;21.05;18.33;;;21.50;99.90;;;;;;5052212;28;20045;-91
2020/12/06 09:13:57;;;;;;;19.23;17.23;;;21.30;99.90;;;;;;5035502;28;20520;-85
2020/12/06 09:16:22;;;;;;;17.50;15.70;;;22.00;99.90;;;;;;5047414;28;20021;-88
2020/12/06 09:18:48;;;;;;;17.20;15.40;;;22.00;99.90;;;;;;5049944;28;20029;-87
2020/12/06 09:21:14;;;;;;;16.83;15.13;;;22.70;99.90;;;;;;5048930;28;20028;-86
2020/12/06 09:23:40;;;;;;;15.50;13.93;;;23.10;99.90;;;;;;5039446;28;20026;-87
2020/12/06 09:26:06;;;;;;;17.05;14.70;;;23.00;99.90;;;;;;5032527;28;20086;-84
2020/12/06 09:28:33;;;;;;;17.38;15.55;;;23.50;99.90;;;;;;5022699;28;20114;-86
2020/12/06 09:31:00;;;;;;;17.02;15.25;;;23.50;99.90;;;;;;5033271;28;20122;-85
2020/12/06 09:33:26;;;;;;;17.48;15.68;;;24.00;99.90;;;;;;5029370;28;20026;-87
2020/12/06 09:35:52;;;;;;;17.05;15.30;;;24.20;99.90;;;;;;5032706;28;20029;-86
2020/12/06 09:38:17;;;;;;;18.05;16.15;;;23.70;99.90;;;;;;5036395;28;20397;-86
2020/12/06 09:40:43;;;;;;;16.95;15.25;;;24.40;99.90;;;;;;5036335;28;20028;-85
2020/12/06 09:43:10;;;;;;;16.85;15.15;;;25.00;99.90;;;;;;5033090;28;20061;-89
2020/12/06 09:45:36;;;;;;;18.02;16.13;;;25.40;99.90;;;;;;5035249;28;20528;-82
2020/12/06 09:48:03;;;;;;;14.80;13.35;;;25.50;99.90;;;;;;5026860;28;20025;-90
2020/12/06 09:50:28;;;;;;;14.77;13.27;;;25.80;99.90;;;;;;5031242;28;20037;-85
2020/12/06 09:52:54;;;;;;;13.38;11.98;;;25.30;99.90;;;;;;5030046;28;20029;-87
2020/12/06 09:55:19;;;;;;;12.35;11.15;;;24.60;99.90;;;;;;5034132;28;20034;-83
2020/12/06 09:57:45;;;;;;;12.02;10.82;;;25.40;99.90;;;;;;5032797;28;20035;-87
2020/12/06 10:00:11;;;;;;;11.70;10.50;;;25.70;99.90;;;;;;5029329;28;20422;-87
2020/12/06 10:02:36;;;;;;;11.50;10.40;;;26.40;99.90;;;;;;5025091;28;20277;-86
2020/12/06 10:05:02;;;;;;;10.93;9.80;;;26.60;99.90;;;;;;5030546;28;20026;-92
2020/12/06 10:07:28;;;;;;;11.82;9.55;;;26.20;99.90;;;;;;5034113;28;20018;-87
2020/12/06 10:09:53;;;;;;;10.00;8.98;;;26.00;99.90;;;;;;5038796;28;20033;-89
2020/12/06 10:12:19;;;;;;;10.98;9.95;;;26.10;99.90;;;;;;5038896;28;20521;-88
2020/12/06 10:14:45;;;;;;;11.10;10.00;;;26.30;99.90;;;;;;5030899;28;20397;-90
2020/12/06 10:17:11;;;;;;;10.38;9.25;;;26.40;99.90;;;;;;5031856;28;20048;-90
2020/12/06 10:19:36;;;;;;;10.52;9.52;;;26.40;99.90;;;;;;5032882;28;20080;-94
2020/12/06 10:22:02;;;;;;;10.55;9.57;;;26.90;99.90;;;;;;5028238;28;20118;-92
2020/12/06 10:24:28;;;;;;;9.52;8.63;;;26.90;99.90;;;;;;5018068;28;20049;-87
2020/12/06 10:26:55;;;;;;;9.65;8.65;;;26.90;99.90;;;;;;5027577;28;20014;-93
2020/12/06 10:29:22;;;;;;;9.88;8.77;;;26.50;99.90;;;;;;5033637;28;20088;-90
2020/12/06 10:31:55;;;;;;;16.13;14.60;;;26.50;99.90;;;;;;5038690;28;20428;-90
2020/12/06 10:34:21;;;;;;;18.58;16.67;;;26.50;99.90;;;;;;5034526;28;20029;-91
2020/12/06 10:36:56;;;;;;;19.00;16.92;;;26.60;99.90;;;;;;5037170;28;20025;-96
2020/12/06 10:39:23;;;;;;;16.23;14.68;;;25.60;99.90;;;;;;5050405;28;20033;-88
2020/12/06 10:41:54;;;;;;;14.15;12.85;;;25.10;99.90;;;;;;5039418;28;20021;-88
2020/12/06 10:44:21;;;;;;;13.88;12.48;;;25.20;99.90;;;;;;5034361;28;20041;-88
2020/12/06 10:46:47;;;;;;;19.23;17.33;;;26.00;99.90;;;;;;5034027;28;20445;-88
2020/12/06 10:49:14;;;;;;;17.88;16.15;;;26.20;99.90;;;;;;5034430;28;20175;-90
2020/12/06 10:51:42;;;;;;;19.92;17.83;;;26.10;99.90;;;;;;5052317;28;20416;-88
2020/12/06 10:54:08;;;;;;;17.52;15.73;;;26.20;99.90;;;;;;5037425;28;20115;-89
2020/12/06 10:56:36;;;;;;;14.93;12.90;;;25.20;99.90;;;;;;5038347;28;20172;-89
2020/12/06 10:59:01;;;;;;;13.88;12.48;;;25.70;99.90;;;;;;5038726;28;20048;-93
2020/12/06 11:01:28;;;;;;;11.05;10.05;;;26.20;99.90;;;;;;5035187;28;20485;-89
2020/12/06 11:03:54;;;;;;;11.70;10.50;;;26.70;99.90;;;;;;5025065;28;20080;-89
2020/12/06 11:06:23;;;;;;;12.32;11.13;;;26.90;99.90;;;;;;5039990;28;20374;-90
2020/12/06 11:08:50;;;;;;;10.85;9.85;;;27.00;99.90;;;;;;5042526;28;20032;-89
2020/12/06 11:11:18;;;;;;;13.43;12.02;;;27.00;99.90;;;;;;5024764;28;20072;-91
2020/12/06 11:13:44;;;;;;;11.93;10.73;;;27.20;99.90;;;;;;5033035;28;20562;-92
2020/12/06 11:16:09;;;;;;;10.50;9.43;;;26.70;99.90;;;;;;5033672;28;20067;-90
2020/12/06 11:18:36;;;;;;;11.80;10.60;;;27.10;99.90;;;;;;5038008;28;20057;-91
2020/12/06 11:21:02;;;;;;;14.35;13.05;;;27.00;99.90;;;;;;5054018;28;20049;-91
2020/12/06 11:23:28;;;;;;;19.67;17.63;;;26.90;99.90;;;;;;5040589;28;20107;-92
2020/12/06 11:25:54;;;;;;;12.18;11.07;;;26.90;99.90;;;;;;5021026;28;20025;-91
2020/12/06 11:28:21;;;;;;;13.70;12.40;;;26.70;99.90;;;;;;5026310;28;20030;-91
2020/12/06 11:30:46;;;;;;;12.07;10.98;;;25.90;99.90;;;;;;5033944;28;20093;-91
2020/12/06 11:33:12;;;;;;;16.60;14.90;;;25.50;99.90;;;;;;5050001;28;20114;-93
2020/12/06 11:35:38;;;;;;;30.58;24.75;;;25.80;99.90;;;;;;5049020;28;20021;-86
2020/12/06 11:38:04;;;;;;;13.93;12.38;;;27.20;99.90;;;;;;5034962;28;20116;-92
2020/12/06 11:40:30;;;;;;;9.35;8.55;;;28.30;99.90;;;;;;5036679;28;20025;-87
2020/12/06 11:42:56;;;;;;;10.77;9.77;;;26.90;99.90;;;;;;5047905;28;20021;-89
2020/12/06 11:45:22;;;;;;;8.18;7.35;;;26.20;99.90;;;;;;5018315;28;20032;-93
2020/12/06 11:47:48;;;;;;;10.07;9.18;;;27.60;99.90;;;;;;5014421;28;20026;-86
2020/12/06 11:50:13;;;;;;;12.82;11.52;;;27.10;99.90;;;;;;5031821;28;20071;-84
2020/12/06 11:52:39;;;;;;;11.20;10.20;;;26.10;99.90;;;;;;5033941;28;20065;-86
2020/12/06 11:55:05;;;;;;;9.88;7.32;;;26.20;99.90;;;;;;5032729;28;20029;-91
2020/12/06 11:57:31;;;;;;;10.38;9.38;;;25.50;99.90;;;;;;5032524;28;20026;-88
2020/12/06 11:59:57;;;;;;;11.80;10.70;;;25.80;99.90;;;;;;5021902;28;20030;-89
2020/12/06 12:02:23;;;;;;;5.18;4.78;;;24.40;99.90;;;;;;5034178;28;20455;-89
2020/12/06 12:04:49;;;;;;;4.35;2.75;;;24.80;99.90;;;;;;5031227;28;20374;-89
2020/12/06 12:07:15;;;;;;;5.72;5.22;;;25.20;99.90;;;;;;5045816;28;20540;-87
2020/12/06 12:09:40;;;;;;;6.47;5.20;;;24.60;99.90;;;;;;5037312;28;20168;-91
2020/12/06 12:12:06;;;;;;;3.53;3.15;;;25.30;99.90;;;;;;5050777;28;20052;-88
2020/12/06 12:14:32;;;;;;;2.55;2.13;;;25.00;99.90;;;;;;5032908;28;20504;-91
2020/12/06 12:16:58;;;;;;;2.20;1.58;;;24.60;99.90;;;;;;5031848;28;20037;-88
2020/12/06 12:19:23;;;;;;;1.88;1.70;;;24.40;99.90;;;;;;5046762;28;20056;-93
2020/12/06 12:21:49;;;;;;;2.10;1.70;;;24.30;99.90;;;;;;5053997;28;20024;-88
2020/12/06 12:24:15;;;;;;;1.80;1.70;;;24.30;99.90;;;;;;5052569;28;20393;-93
2020/12/06 12:26:40;;;;;;;2.10;2.00;;;24.70;99.90;;;;;;5052482;28;20021;-91
2020/12/06 12:29:06;;;;;;;1.88;1.77;;;24.50;99.90;;;;;;5049956;28;20033;-91
2020/12/06 12:31:32;;;;;;;1.90;1.80;;;24.70;99.90;;;;;;5038370;28;20025;-94
2020/12/06 12:33:58;;;;;;;2.30;2.00;;;25.00;99.90;;;;;;5035007;28;20041;-91
2020/12/06 12:36:24;;;;;;;2.53;1.80;;;24.50;99.90;;;;;;5023360;28;20026;-93
2020/12/06 12:38:50;;;;;;;1.90;1.80;;;24.00;99.90;;;;;;5016974;28;20041;-90